Time;durP1;ratioP1;P1;durP2;ratioP2;P2;SDS_P1;SDS_P2;PMS_P1;PMS_P2;Temp;Humidity;BMP_temperature;BMP_pressure;BME280_temperature;BME280_humidity;BME280_pressure;Samples;Min_cycle;Max_cycle;Signal;HPM_P1;HPM_P2
2021/10/01 00:00:47;;;;;;;3.85;0.70;;;;;;;19.99;39.90;101783.91;5076829;28;20024;-62
2021/10/01 00:03:12;;;;;;;0.95;0.40;;;;;;;19.95;40.30;101775.22;5075595;28;20020;-62
2021/10/01 00:05:39;;;;;;;2.72;0.45;;;;;;;19.93;40.16;101766.41;5041317;28;20028;-62
2021/10/01 00:08:05;;;;;;;3.50;0.68;;;;;;;19.96;40.58;101766.03;5076668;28;20047;-62
2021/10/01 00:10:31;;;;;;;1.20;0.40;;;;;;;19.91;40.41;101762.97;5089505;28;20126;-62
2021/10/01 00:12:56;;;;;;;1.70;0.80;;;;;;;19.95;40.45;101768.94;5096883;28;20048;-62
2021/10/01 00:15:22;;;;;;;4.50;0.50;;;;;;;19.94;40.44;101751.75;5096702;28;20019;-62
2021/10/01 00:17:47;;;;;;;7.70;0.77;;;;;;;19.92;39.99;101753.81;5097107;28;20062;-62
2021/10/01 00:20:12;;;;;;;2.03;0.50;;;;;;;19.93;40.39;101750.09;5096696;28;20495;-62
2021/10/01 00:22:39;;;;;;;2.50;0.70;;;;;;;19.90;40.53;101734.09;5096966;28;20024;-62
2021/10/01 00:25:04;;;;;;;2.83;0.55;;;;;;;19.91;40.68;101734.91;5078234;28;20051;-62
2021/10/01 00:27:30;;;;;;;5.95;0.70;;;;;;;19.91;40.70;101743.94;5096097;28;20035;-62
2021/10/01 00:29:55;;;;;;;4.00;0.60;;;;;;;19.89;40.52;101735.09;5096672;28;20024;-62
2021/10/01 00:32:20;;;;;;;5.55;0.80;;;;;;;19.88;40.08;101736.09;5095648;28;20027;-62
2021/10/01 00:34:49;;;;;;;5.03;0.80;;;;;;;19.85;40.58;101724.75;5096553;28;20449;-62
2021/10/01 00:37:15;;;;;;;4.57;0.65;;;;;;;19.90;40.71;101734.09;5096603;28;20043;-62
2021/10/01 00:39:40;;;;;;;3.20;1.02;;;;;;;19.91;40.21;101724.91;5096677;28;20468;-62
2021/10/01 00:42:05;;;;;;;5.40;0.77;;;;;;;19.88;39.94;101725.22;5078460;28;20024;-62
2021/10/01 00:44:31;;;;;;;3.28;0.65;;;;;;;19.91;40.28;101730.34;5096151;28;20468;-62
2021/10/01 00:46:56;;;;;;;5.25;0.73;;;;;;;19.90;40.24;101723.22;5078788;28;20105;-62
2021/10/01 00:49:22;;;;;;;3.40;0.47;;;;;;;19.93;40.10;101728.31;5096553;28;20044;-63
2021/10/01 00:51:47;;;;;;;1.58;0.68;;;;;;;19.91;40.30;101721.31;5096370;28;20016;-62
2021/10/01 00:54:12;;;;;;;1.67;0.73;;;;;;;19.90;39.47;101711.47;5096100;28;20035;-62
2021/10/01 00:56:38;;;;;;;2.25;0.70;;;;;;;19.90;40.18;101715.06;5095387;28;20024;-62
2021/10/01 00:59:03;;;;;;;1.60;0.60;;;;;;;19.90;40.34;101706.03;5096386;28;20027;-63
2021/10/01 01:01:29;;;;;;;2.78;0.80;;;;;;;19.89;40.14;101702.47;5096061;28;20512;-62
2021/10/01 01:03:59;;;;;;;3.17;0.77;;;;;;;19.86;40.19;101708.25;5095914;28;20031;-62
2021/10/01 01:06:42;;;;;;;1.40;0.43;;;;;;;19.85;40.38;101701.09;5078684;28;20027;-63
2021/10/01 01:09:24;;;;;;;0.50;0.50;;;;;;;19.80;39.89;101694.44;5094183;28;20395;-62
2021/10/01 01:12:08;;;;;;;;;;;;;;;19.81;40.25;101698.88;5076357;28;20084;-62
2021/10/01 01:14:43;;;;;;;1.13;0.45;;;;;;;19.83;40.33;101700.41;5075338;28;19959;-62
2021/10/01 01:17:12;;;;;;;1.50;0.45;;;;;;;19.85;40.69;101703.81;5074983;28;20032;-63
2021/10/01 01:20:02;;;;;;;1.40;0.75;;;;;;;19.84;40.04;101695.84;5074468;28;20025;-62
2021/10/01 01:22:42;;;;;;;1.67;0.68;;;;;;;19.82;40.30;101701.41;5058369;28;20103;-62
2021/10/01 01:25:10;;;;;;;1.75;0.30;;;;;;;19.83;39.99;101691.41;5074820;28;20108;-62
2021/10/01 01:27:50;;;;;;;4.82;0.47;;;;;;;19.82;40.28;101692.44;5076278;28;20028;-63
2021/10/01 01:30:19;;;;;;;2.67;0.40;;;;;;;19.82;40.09;101693.25;5075707;28;20491;-63
2021/10/01 01:32:47;;;;;;;3.22;0.43;;;;;;;19.81;40.21;101691.59;5058447;28;20376;-62
2021/10/01 01:35:17;;;;;;;1.58;0.70;;;;;;;19.79;39.91;101692.78;5058256;28;20017;-62
2021/10/01 01:37:55;;;;;;;3.00;0.40;;;;;;;19.79;40.32;101688.19;5074754;28;20024;-62
2021/10/01 01:40:23;;;;;;;3.88;0.88;;;;;;;19.80;40.07;101687.16;5057939;28;20520;-62
2021/10/01 01:42:49;;;;;;;0.77;0.40;;;;;;;19.78;40.19;101681.03;5075949;28;20063;-66
2021/10/01 01:45:19;;;;;;;2.33;0.50;;;;;;;19.72;40.18;101659.94;5057496;28;20066;-62
2021/10/01 01:47:45;;;;;;;4.35;0.95;;;;;;;19.76;40.39;101683.09;5074554;28;20025;-62
2021/10/01 01:50:12;;;;;;;1.45;0.80;;;;;;;19.75;39.98;101671.34;5074497;28;20036;-62
2021/10/01 01:52:39;;;;;;;3.92;0.80;;;;;;;19.77;40.29;101672.03;5075377;28;20075;-62
2021/10/01 01:55:06;;;;;;;2.15;0.43;;;;;;;19.73;40.01;101656.22;5057803;28;20024;-62
2021/10/01 01:57:31;;;;;;;0.52;0.30;;;;;;;19.73;40.25;101662.53;5074709;28;20036;-62
2021/10/01 01:59:58;;;;;;;7.00;0.70;;;;;;;19.71;40.53;101652.81;5075816;28;20465;-62
2021/10/01 02:02:24;;;;;;;8.77;0.80;;;;;;;19.69;40.11;101643.97;5057910;28;20027;-62
2021/10/01 02:04:51;;;;;;;8.13;2.17;;;;;;;19.68;40.41;101651.28;5074451;28;20103;-63
2021/10/01 02:07:17;;;;;;;3.78;0.40;;;;;;;19.69;40.23;101649.41;5057822;28;20027;-62
2021/10/01 02:09:43;;;;;;;4.88;0.70;;;;;;;19.66;40.60;101644.31;5080021;28;20119;-62
2021/10/01 02:12:09;;;;;;;1.38;0.30;;;;;;;19.68;40.20;101642.28;5094773;28;20031;-62
2021/10/01 02:14:39;;;;;;;3.60;0.93;;;;;;;19.65;40.31;101648.06;5098940;28;20070;-62
2021/10/01 02:17:05;;;;;;;1.75;0.52;;;;;;;19.67;40.18;101640.59;5095115;28;20020;-63
2021/10/01 02:19:33;;;;;;;3.42;0.63;;;;;;;19.68;40.76;101636.84;5097548;28;20157;-62
2021/10/01 02:22:00;;;;;;;3.13;0.50;;;;;;;19.66;40.39;101644.31;5099534;28;20028;-63
2021/10/01 02:24:28;;;;;;;6.43;1.13;;;;;;;19.68;40.75;101643.13;5081110;28;20437;-63
2021/10/01 02:27:23;;;;;;;2.17;0.50;;;;;;;19.69;39.99;101638.53;5099310;28;20032;-62
2021/10/01 02:29:56;;;;;;;2.58;0.57;;;;;;;19.66;39.94;101625.28;5098244;28;20085;-63
2021/10/01 02:32:24;;;;;;;;;;;;;;;19.66;40.46;101620.69;5082137;28;20111;-62
2021/10/01 02:34:50;;;;;;;3.13;0.55;;;;;;;19.63;40.44;101623.75;5099392;28;19908;-62
2021/10/01 02:37:16;;;;;;;1.20;0.50;;;;;;;19.61;40.37;101611.34;5100114;28;20045;-63
2021/10/01 02:39:44;;;;;;;0.95;0.60;;;;;;;19.64;40.44;101624.59;5098278;28;20024;-62
2021/10/01 02:42:11;;;;;;;2.47;0.50;;;;;;;19.57;40.21;101615.44;5098319;28;20397;-62
2021/10/01 02:44:38;;;;;;;2.67;0.68;;;;;;;19.58;39.74;101609.81;5099475;28;20053;-63
2021/10/01 02:47:04;;;;;;;1.27;0.40;;;;;;;19.58;39.71;101611.69;5098989;28;20049;-62
2021/10/01 02:49:30;;;;;;;2.67;0.60;;;;;;;19.55;40.50;101603.88;5099324;28;20485;-62
2021/10/01 02:51:58;;;;;;;2.95;0.70;;;;;;;19.57;40.00;101601.84;5099397;28;20105;-62
2021/10/01 02:54:29;;;;;;;1.63;0.40;;;;;;;19.59;40.14;101605.25;5081318;28;20032;-62
2021/10/01 02:57:04;;;;;;;3.13;1.10;;;;;;;19.61;40.78;101604.06;5080849;28;20106;-62
2021/10/01 02:59:30;;;;;;;5.53;0.70;;;;;;;19.64;40.21;101597.41;5099078;28;20024;-62
2021/10/01 03:01:58;;;;;;;4.03;0.82;;;;;;;19.61;40.62;101585.03;5097200;28;20107;-62
2021/10/01 03:04:24;;;;;;;4.95;1.05;;;;;;;19.64;40.20;101595.56;5098396;28;20099;-63
2021/10/01 03:06:51;;;;;;;4.93;0.73;;;;;;;19.67;40.65;101591.66;5098535;28;20051;-62
2021/10/01 03:09:17;;;;;;;2.85;0.40;;;;;;;19.69;40.40;101586.88;5080615;28;20471;-62
2021/10/01 03:11:43;;;;;;;4.10;1.10;;;;;;;19.69;40.19;101589.59;5080370;28;20111;-62
2021/10/01 03:14:08;;;;;;;8.68;0.85;;;;;;;19.71;40.31;101582.13;5079964;28;20020;-62
2021/10/01 03:16:35;;;;;;;1.13;0.35;;;;;;;19.70;40.39;101580.44;5080329;28;20039;-62
2021/10/01 03:19:01;;;;;;;7.90;0.68;;;;;;;19.67;39.85;101575.34;5080148;28;20055;-62
2021/10/01 03:21:26;;;;;;;4.03;0.30;;;;;;;19.71;40.35;101571.25;5097973;28;20020;-62
2021/10/01 03:23:52;;;;;;;2.92;0.57;;;;;;;19.74;40.62;101576.34;5096735;28;20016;-62
2021/10/01 03:26:18;;;;;;;4.22;0.43;;;;;;;19.75;40.11;101567.19;5098183;28;20024;-62
2021/10/01 03:28:43;;;;;;;1.65;0.32;;;;;;;19.81;40.11;101571.94;5079853;28;20146;-63
2021/10/01 03:31:09;;;;;;;5.45;0.50;;;;;;;19.83;39.89;101566.31;5098008;28;20020;-62
2021/10/01 03:33:35;;;;;;;1.98;0.40;;;;;;;19.82;40.20;101564.63;5098070;28;20039;-62
2021/10/01 03:36:00;;;;;;;1.52;0.88;;;;;;;19.81;39.88;101568.38;5098024;28;20103;-62
2021/10/01 03:38:26;;;;;;;1.15;0.50;;;;;;;19.80;39.88;101570.22;5079637;28;20103;-62
2021/10/01 03:40:52;;;;;;;1.65;0.47;;;;;;;19.78;40.02;101575.00;5096468;28;20016;-62
2021/10/01 03:43:20;;;;;;;1.33;0.32;;;;;;;19.74;40.18;101560.03;5097735;28;20455;-62
2021/10/01 03:45:46;;;;;;;2.67;0.68;;;;;;;19.75;40.64;101556.31;5097705;28;20024;-62
2021/10/01 03:48:11;;;;;;;4.03;0.60;;;;;;;19.74;40.10;101560.03;5098011;28;20046;-62
2021/10/01 03:50:37;;;;;;;3.05;0.35;;;;;;;19.75;39.97;101557.16;5097370;28;20468;-62
2021/10/01 03:53:03;;;;;;;5.65;2.33;;;;;;;19.78;40.33;101558.69;5097580;28;20024;-62
2021/10/01 03:55:29;;;;;;;0.95;0.30;;;;;;;19.81;40.33;101542.03;5079223;28;20016;-63
2021/10/01 03:57:54;;;;;;;0.20;0.17;;;;;;;19.84;40.14;101549.84;5097020;28;20032;-62
2021/10/01 04:00:21;;;;;;;4.22;0.80;;;;;;;19.84;40.01;101549.00;5097095;28;20027;-62
2021/10/01 04:02:46;;;;;;;4.88;0.50;;;;;;;19.81;40.35;101531.16;5078660;28;20027;-62
2021/10/01 04:05:16;;;;;;;1.67;0.50;;;;;;;19.82;40.30;101535.56;5097059;28;20027;-62
2021/10/01 04:07:42;;;;;;;0.93;0.73;;;;;;;19.80;40.14;101532.16;5079213;28;20042;-63
2021/10/01 04:10:08;;;;;;;4.60;0.90;;;;;;;19.82;40.21;101532.00;5097017;28;20492;-62
2021/10/01 04:12:33;;;;;;;6.03;0.70;;;;;;;19.79;40.09;101522.31;5097392;28;20402;-62
2021/10/01 04:14:59;;;;;;;3.30;0.70;;;;;;;19.80;40.02;101525.88;5096224;28;20049;-62
2021/10/01 04:17:24;;;;;;;2.13;0.77;;;;;;;19.76;39.88;101517.22;5095299;28;20039;-62
2021/10/01 04:19:50;;;;;;;3.67;0.70;;;;;;;19.80;40.27;101515.84;5097213;28;20388;-62
2021/10/01 04:22:16;;;;;;;5.28;0.57;;;;;;;19.80;40.41;101509.56;5078761;28;20476;-62
2021/10/01 04:24:42;;;;;;;2.85;0.80;;;;;;;19.82;40.29;101513.78;5096899;28;20119;-62
2021/10/01 04:27:07;;;;;;;4.47;0.57;;;;;;;19.83;39.99;101514.66;5096914;28;20056;-62
2021/10/01 04:29:32;;;;;;;2.17;0.70;;;;;;;19.82;40.88;101502.09;5096753;28;20024;-62
2021/10/01 04:31:58;;;;;;;1.80;0.70;;;;;;;19.82;40.33;101508.34;5096679;28;20504;-62
2021/10/01 04:34:23;;;;;;;1.13;0.45;;;;;;;19.82;40.38;101519.25;5096510;28;20020;-63
2021/10/01 04:36:49;;;;;;;3.20;0.52;;;;;;;19.81;40.00;101517.56;5095657;28;20494;-62
2021/10/01 04:39:14;;;;;;;4.40;0.98;;;;;;;19.79;40.37;101508.72;5095935;28;20161;-62
2021/10/01 04:41:41;;;;;;;1.63;0.90;;;;;;;19.78;40.00;101501.59;5095231;28;20539;-62
2021/10/01 04:44:07;;;;;;;1.17;0.80;;;;;;;19.74;40.03;101501.06;5096555;28;20058;-62
2021/10/01 04:46:33;;;;;;;2.25;0.93;;;;;;;19.72;40.07;101491.41;5096526;28;20027;-62
2021/10/01 04:48:58;;;;;;;2.60;0.75;;;;;;;19.69;40.41;101494.47;5096357;28;20032;-63
2021/10/01 04:51:23;;;;;;;3.72;1.08;;;;;;;19.70;40.34;101493.44;5095838;28;20028;-63
2021/10/01 04:53:49;;;;;;;3.08;1.30;;;;;;;19.67;40.79;101499.22;5096542;28;20031;-62
2021/10/01 04:56:15;;;;;;;1.98;0.63;;;;;;;19.58;40.30;101487.50;5096353;28;20110;-62
2021/10/01 04:58:40;;;;;;;4.55;0.90;;;;;;;19.58;40.64;101494.81;5097038;28;20055;-62
2021/10/01 05:01:06;;;;;;;3.08;0.90;;;;;;;19.58;40.11;101494.81;5095833;28;20529;-62
2021/10/01 05:03:31;;;;;;;4.82;1.25;;;;;;;19.60;40.71;101487.31;5096288;28;20369;-62
2021/10/01 05:05:56;;;;;;;6.28;1.05;;;;;;;19.60;40.32;101488.19;5095888;28;20506;-62
2021/10/01 05:08:22;;;;;;;2.22;1.00;;;;;;;19.62;40.22;101482.59;5095509;28;20498;-62
2021/10/01 05:10:47;;;;;;;1.55;0.70;;;;;;;19.58;40.78;101489.38;5095682;28;20036;-62
2021/10/01 05:13:13;;;;;;;5.80;0.73;;;;;;;19.59;40.61;101488.38;5070419;28;20074;-62
2021/10/01 05:15:41;;;;;;;3.30;0.70;;;;;;;19.58;40.42;101484.78;5095491;28;20024;-62
2021/10/01 05:18:06;;;;;;;1.20;0.55;;;;;;;19.58;40.17;101483.94;5096746;28;20035;-62
2021/10/01 05:20:32;;;;;;;2.50;0.90;;;;;;;19.55;40.33;101479.69;5096531;28;20020;-62
2021/10/01 05:22:57;;;;;;;2.85;1.15;;;;;;;19.58;40.24;101489.38;5096777;28;20031;-64
2021/10/01 05:25:25;;;;;;;3.13;0.70;;;;;;;19.58;40.48;101490.22;5089638;28;20016;-63
2021/10/01 05:27:50;;;;;;;5.15;0.85;;;;;;;19.55;40.64;101478.84;5096949;28;20023;-64
2021/10/01 05:30:16;;;;;;;1.00;0.60;;;;;;;19.58;40.11;101481.22;5097156;28;20456;-63
2021/10/01 05:32:41;;;;;;;5.85;0.63;;;;;;;19.57;40.35;101482.25;5096715;28;20085;-63
2021/10/01 05:35:06;;;;;;;1.92;1.00;;;;;;;19.57;40.28;101482.25;5095908;28;20042;-63
2021/10/01 05:37:32;;;;;;;1.75;0.50;;;;;;;19.58;40.36;101473.06;5096629;28;20073;-63
2021/10/01 05:39:57;;;;;;;1.33;0.60;;;;;;;19.61;40.71;101480.88;5096659;28;20074;-63
2021/10/01 05:42:22;;;;;;;2.53;0.70;;;;;;;19.62;40.63;101485.31;5096817;28;20072;-63
2021/10/01 05:44:48;;;;;;;5.82;0.60;;;;;;;19.62;40.37;101479.88;5096428;28;20058;-63
2021/10/01 05:47:13;;;;;;;12.13;1.35;;;;;;;19.65;40.37;101479.53;5098365;28;20099;-63
2021/10/01 05:49:40;;;;;;;3.22;0.90;;;;;;;19.68;40.49;101479.19;5100634;28;20016;-63
2021/10/01 05:52:48;;;;;;;2.03;1.02;;;;;;;19.69;40.94;101470.00;5081926;28;20082;-63
2021/10/01 05:54:57;;;;;;;4.63;0.88;;;;;;;19.72;40.70;101480.53;5098072;28;20036;-63
2021/10/01 05:57:23;;;;;;;3.70;0.70;;;;;;;19.70;40.81;101474.41;5100192;28;20476;-63
2021/10/01 05:59:48;;;;;;;3.95;1.10;;;;;;;19.76;40.72;101476.44;5097632;28;20028;-63
2021/10/01 06:02:19;;;;;;;5.25;0.95;;;;;;;19.75;40.23;101472.03;5100525;28;20427;-63
2021/10/01 06:04:44;;;;;;;2.88;0.77;;;;;;;19.78;40.68;101468.97;5078949;28;20040;-63
2021/10/01 06:07:12;;;;;;;4.20;0.63;;;;;;;19.82;40.59;101478.44;5080490;28;20029;-63
2021/10/01 06:09:38;;;;;;;1.98;0.77;;;;;;;19.86;40.50;101468.94;5073274;28;20517;-63
2021/10/01 06:12:04;;;;;;;2.47;0.75;;;;;;;19.91;40.37;101458.38;5058300;28;20100;-64
2021/10/01 06:14:29;;;;;;;2.53;0.63;;;;;;;20.09;39.95;101472.63;5058859;28;20452;-63
2021/10/01 06:16:55;;;;;;;2.22;0.65;;;;;;;20.10;39.98;101451.72;5058627;28;20028;-63
2021/10/01 06:19:21;;;;;;;1.95;0.50;;;;;;;20.13;40.52;101457.63;5059330;28;20462;-63
2021/10/01 06:21:47;;;;;;;1.88;1.02;;;;;;;20.15;39.92;101458.31;5060786;28;20025;-63
2021/10/01 06:24:12;;;;;;;5.45;0.90;;;;;;;20.14;39.75;101453.91;5078761;28;20532;-63
2021/10/01 06:26:38;;;;;;;2.83;1.23;;;;;;;20.18;40.20;101449.78;5060658;28;20059;-63
2021/10/01 06:29:04;;;;;;;1.27;0.60;;;;;;;20.18;39.64;101448.97;5077902;28;20033;-63
2021/10/01 06:31:29;;;;;;;5.60;0.95;;;;;;;20.23;40.22;101455.56;5060327;28;20017;-63
2021/10/01 06:33:55;;;;;;;2.13;0.77;;;;;;;20.43;39.90;101457.88;5077716;28;20060;-63
2021/10/01 06:36:22;;;;;;;4.28;0.88;;;;;;;20.55;39.75;101453.72;5060449;28;20020;-63
2021/10/01 06:38:49;;;;;;;3.63;1.00;;;;;;;20.70;39.98;101449.22;5077200;28;20111;-63
2021/10/01 06:41:14;;;;;;;0.55;0.45;;;;;;;20.79;40.15;101448.16;5060649;28;20437;-63
2021/10/01 06:43:40;;;;;;;5.13;0.65;;;;;;;20.79;39.93;101448.16;5078343;28;20059;-63
2021/10/01 06:46:14;;;;;;;3.55;0.90;;;;;;;20.83;40.14;101444.00;5078306;28;20032;-63
2021/10/01 07:21:30;;;;;;;2.40;0.43;;;;;;;21.09;39.32;101451.88;5097266;28;20034;-63
2021/10/01 08:21:04;;;;;;;4.40;0.98;;;;;;;24.02;36.06;101419.28;5060747;28;20036;-65
2021/10/01 08:23:30;;;;;;;5.57;1.40;;;;;;;24.36;36.58;101413.78;5094788;28;20050;-64
2021/10/01 08:25:55;;;;;;;4.35;0.75;;;;;;;24.61;35.46;101405.84;5094316;28;20059;-64
2021/10/01 08:28:21;;;;;;;2.33;0.70;;;;;;;24.84;35.97;101406.38;5093275;28;20052;-64
2021/10/01 08:30:46;;;;;;;4.63;0.65;;;;;;;25.03;36.29;101407.44;5093841;28;20024;-65
2021/10/01 08:33:11;;;;;;;2.45;1.25;;;;;;;25.27;35.46;101404.06;5094280;28;20063;-65
2021/10/01 08:35:37;;;;;;;1.52;0.50;;;;;;;25.38;35.14;101420.75;5094371;28;20027;-64
2021/10/01 08:38:03;;;;;;;9.40;0.95;;;;;;;25.34;35.56;101397.56;5094318;28;20031;-64
2021/10/01 08:40:29;;;;;;;4.50;1.20;;;;;;;25.60;35.13;101406.84;5093902;28;20024;-64
2021/10/01 08:42:55;;;;;;;3.97;0.52;;;;;;;25.72;35.02;101408.72;5094071;28;20031;-65
2021/10/01 08:45:22;;;;;;;2.58;0.40;;;;;;;26.01;34.87;101399.97;5093711;28;20376;-65
2021/10/01 08:47:48;;;;;;;3.15;0.45;;;;;;;26.31;34.12;101400.31;5092848;28;20385;-65
2021/10/01 08:50:16;;;;;;;2.50;0.50;;;;;;;26.56;34.25;101401.25;5093268;28;20012;-64
2021/10/01 08:52:42;;;;;;;1.48;0.32;;;;;;;26.89;34.13;101398.31;5094160;28;20052;-65
2021/10/01 08:55:09;;;;;;;2.53;0.50;;;;;;;27.14;33.82;101396.44;5094255;28;20028;-64
2021/10/01 08:57:34;;;;;;;3.70;0.57;;;;;;;27.42;33.19;101395.16;5093936;28;20023;-62
2021/10/01 09:00:02;;;;;;;1.05;0.40;;;;;;;27.55;33.09;101395.91;5093858;28;20020;-62
2021/10/01 09:02:27;;;;;;;8.32;0.75;;;;;;;27.32;33.70;101398.41;5090079;28;20031;-62
2021/10/01 09:04:55;;;;;;;2.28;0.55;;;;;;;27.50;33.10;101398.47;5093953;28;20028;-62
2021/10/01 09:07:23;;;;;;;3.53;0.70;;;;;;;27.60;33.21;101384.19;5093675;28;20027;-62
2021/10/01 09:09:50;;;;;;;2.13;0.45;;;;;;;27.75;32.48;101390.16;5072807;28;20034;-62
2021/10/01 09:12:16;;;;;;;3.55;0.50;;;;;;;28.00;32.51;101379.09;5073398;28;20052;-62
2021/10/01 09:14:48;;;;;;;3.70;0.45;;;;;;;28.20;32.55;101386.06;5073747;28;20024;-62
2021/10/01 09:17:18;;;;;;;5.80;0.40;;;;;;;28.46;31.33;101375.75;5073506;28;20020;-61
2021/10/01 09:19:45;;;;;;;6.22;0.85;;;;;;;28.31;32.31;101377.00;5073549;28;20416;-62
2021/10/01 09:22:10;;;;;;;2.28;0.43;;;;;;;28.64;31.19;101381.28;5055280;28;20082;-62
2021/10/01 09:24:42;;;;;;;2.83;0.50;;;;;;;28.30;31.99;101369.84;5073004;28;20024;-61
2021/10/01 09:27:08;;;;;;;5.35;0.70;;;;;;;28.93;31.80;101368.50;5073518;28;20431;-61
2021/10/01 09:29:35;;;;;;;1.35;0.40;;;;;;;31.38;28.74;101362.97;5073307;28;20028;-62
2021/10/01 09:32:11;;;;;;;1.80;0.63;;;;;;;32.01;27.72;101354.22;5072962;28;20043;-61
2021/10/01 09:34:40;;;;;;;4.93;0.50;;;;;;;31.18;29.12;101351.59;5073286;28;20074;-63
2021/10/01 09:37:26;;;;;;;2.17;0.63;;;;;;;30.41;29.79;101362.34;5073464;28;20039;-62
2021/10/01 09:40:01;;;;;;;4.40;0.65;;;;;;;30.07;29.51;101363.25;5073581;28;20027;-62
2021/10/01 09:42:29;;;;;;;1.77;1.10;;;;;;;30.05;29.34;101357.13;5073383;28;20029;-62
2021/10/01 09:44:56;;;;;;;2.72;0.70;;;;;;;29.81;30.40;101366.56;5073460;28;20027;-62
2021/10/01 09:47:36;;;;;;;4.60;0.60;;;;;;;30.06;29.52;101358.84;5073231;28;20035;-62
2021/10/01 09:50:05;;;;;;;5.80;0.80;;;;;;;30.27;29.32;101351.78;5072923;28;20020;-62
2021/10/01 09:52:40;;;;;;;2.75;0.40;;;;;;;29.75;30.19;101361.97;5071851;28;20118;-63
2021/10/01 09:55:06;;;;;;;4.05;0.68;;;;;;;29.75;30.29;101353.69;5072904;28;20029;-62
2021/10/01 09:57:32;;;;;;;3.33;1.23;;;;;;;30.04;29.78;101340.81;5073148;28;20016;-63
2021/10/01 09:59:57;;;;;;;7.07;0.80;;;;;;;29.63;29.57;101341.81;5055036;28;20020;-63
2021/10/01 10:02:22;;;;;;;2.05;1.02;;;;;;;29.41;29.87;101345.19;5072812;28;20047;-63
2021/10/01 10:04:51;;;;;;;3.70;0.68;;;;;;;29.49;29.44;101337.63;5072819;28;20060;-62
2021/10/01 10:07:19;;;;;;;0.90;0.47;;;;;;;29.64;29.05;101337.97;5079765;28;20097;-61
2021/10/01 10:09:50;;;;;;;2.08;0.60;;;;;;;30.22;29.41;101327.66;5075298;28;20111;-62
2021/10/01 10:12:19;;;;;;;1.55;0.50;;;;;;;30.90;28.58;101323.94;5073128;28;20422;-62
2021/10/01 10:14:47;;;;;;;3.10;0.60;;;;;;;31.41;28.09;101318.13;5072812;28;20040;-62
2021/10/01 10:17:18;;;;;;;3.50;0.80;;;;;;;31.83;28.37;101315.69;5072638;28;20016;-62
2021/10/01 10:19:43;;;;;;;7.07;1.02;;;;;;;32.32;27.09;101319.38;5071555;28;20051;-63
2021/10/01 10:22:09;;;;;;;3.45;1.52;;;;;;;32.47;27.23;101319.53;5049753;28;20028;-62
2021/10/01 10:24:34;;;;;;;2.90;0.80;;;;;;;32.60;27.21;101310.81;5070754;28;20437;-62
2021/10/01 10:27:00;;;;;;;5.72;0.88;;;;;;;32.84;27.16;101312.16;5072389;28;20096;-62
2021/10/01 10:29:26;;;;;;;4.00;1.00;;;;;;;33.04;26.80;101300.38;5071948;28;20024;-62
2021/10/01 10:31:53;;;;;;;3.13;0.57;;;;;;;33.26;26.50;101297.50;5072638;28;20081;-62
2021/10/01 10:34:27;;;;;;;0.88;0.40;;;;;;;33.27;26.39;101288.91;5073012;28;20090;-63
2021/10/01 10:37:00;;;;;;;2.20;0.55;;;;;;;33.29;26.72;101292.25;5058318;28;20063;-62
2021/10/01 10:39:29;;;;;;;2.83;0.40;;;;;;;33.09;26.39;101299.59;5076416;28;20427;-62
2021/10/01 10:42:00;;;;;;;4.05;0.45;;;;;;;32.52;27.01;101277.97;5075979;28;20023;-62
2021/10/01 10:44:44;;;;;;;2.05;0.50;;;;;;;32.07;27.38;101277.50;5076122;28;20025;-62
2021/10/01 10:47:12;;;;;;;4.35;0.75;;;;;;;31.83;27.59;101276.09;5076100;28;20491;-63
2021/10/01 10:49:37;;;;;;;1.75;0.68;;;;;;;31.66;27.68;101282.50;5041302;28;20028;-63
2021/10/01 10:52:07;;;;;;;4.57;0.40;;;;;;;31.38;27.82;101279.88;5075696;28;20021;-63
2021/10/01 10:54:39;;;;;;;3.22;0.73;;;;;;;31.27;27.92;101266.97;5075561;28;20025;-63
2021/10/01 10:57:31;;;;;;;3.38;0.65;;;;;;;31.65;27.31;101280.00;5075905;28;20361;-62
2021/10/01 11:00:02;;;;;;;;;;;;;;;32.02;27.53;101263.59;5074199;28;20086;-63
2021/10/01 11:02:33;;;;;;;2.50;0.68;;;;;;;32.30;26.50;101257.78;5075810;28;19915;-62
2021/10/01 11:05:17;;;;;;;6.90;0.88;;;;;;;32.41;27.02;101259.56;5074496;28;20028;-63
2021/10/01 11:08:03;;;;;;;2.55;0.65;;;;;;;32.31;26.82;101278.00;5075813;28;20369;-62
2021/10/01 11:10:41;;;;;;;9.48;0.70;;;;;;;32.41;26.98;101262.34;5081100;28;20416;-62
2021/10/01 11:13:18;;;;;;;1.23;0.85;;;;;;;32.17;27.45;101260.97;5095660;28;20028;-62
2021/10/01 11:18:34;;;;;;;1.92;0.60;;;;;;;32.36;26.65;101270.59;5095664;28;20024;-62
2021/10/01 11:21:01;;;;;;;1.42;0.60;;;;;;;32.44;26.78;101269.28;5095457;28;20028;-63
2021/10/01 11:23:26;;;;;;;7.88;1.55;;;;;;;32.50;26.50;101252.41;5094434;28;20039;-62
2021/10/01 11:25:52;;;;;;;5.75;0.80;;;;;;;32.63;26.88;101254.78;5094492;28;20024;-62
2021/10/01 11:28:30;;;;;;;2.95;0.80;;;;;;;32.75;26.13;101258.22;5095405;28;20023;-62
2021/10/01 11:30:56;;;;;;;6.00;0.60;;;;;;;32.68;26.11;101254.00;5095410;28;20503;-63
2021/10/01 11:33:21;;;;;;;4.03;0.77;;;;;;;32.73;26.34;101260.41;5094347;28;20020;-62
2021/10/01 11:35:55;;;;;;;2.28;0.80;;;;;;;33.09;26.08;101252.38;5095222;28;20103;-63
2021/10/01 11:38:29;;;;;;;4.80;0.60;;;;;;;33.23;26.66;101253.56;5095185;28;20438;-62
2021/10/01 11:41:13;;;;;;;7.68;0.98;;;;;;;32.90;26.11;101242.78;5095287;28;20410;-63
2021/10/01 11:43:48;;;;;;;2.13;0.68;;;;;;;32.41;26.30;101240.16;5094885;28;20024;-63
2021/10/01 11:46:27;;;;;;;1.70;0.40;;;;;;;31.84;26.63;101222.31;5095330;28;20024;-62
2021/10/01 11:48:53;;;;;;;2.47;0.80;;;;;;;31.60;27.19;101239.19;5094832;28;20023;-62
2021/10/01 11:51:19;;;;;;;2.78;0.50;;;;;;;31.40;27.40;101227.00;5094745;28;20024;-62
2021/10/01 11:53:44;;;;;;;1.80;0.32;;;;;;;31.29;27.25;101231.56;5094799;28;20024;-62
2021/10/01 11:56:09;;;;;;;2.10;0.70;;;;;;;31.09;27.37;101225.75;5094031;28;20059;-63
2021/10/01 11:58:37;;;;;;;1.60;0.85;;;;;;;31.01;27.67;101234.47;5094794;28;20024;-62
2021/10/01 12:01:15;;;;;;;5.88;0.65;;;;;;;30.98;27.79;101224.75;5093852;28;20020;-62
2021/10/01 12:03:52;;;;;;;4.85;0.57;;;;;;;30.73;27.72;101210.50;5094718;28;20055;-61
2021/10/01 12:06:22;;;;;;;3.38;0.40;;;;;;;30.48;27.84;101229.44;5094682;28;20020;-62
2021/10/01 12:08:55;;;;;;;2.78;0.52;;;;;;;30.15;28.23;101216.38;5093271;28;20024;-62
2021/10/01 12:11:25;;;;;;;3.25;0.30;;;;;;;29.93;28.46;101220.91;5094223;28;20047;-62
2021/10/01 12:13:50;;;;;;;2.33;0.80;;;;;;;29.78;28.22;101218.69;5094505;28;20024;-62
2021/10/01 12:16:16;;;;;;;4.53;0.60;;;;;;;29.69;28.11;101213.78;5093364;28;20380;-63
2021/10/01 12:18:57;;;;;;;4.47;0.85;;;;;;;29.54;28.69;101207.97;5094481;28;20050;-62
2021/10/01 12:21:24;;;;;;;1.05;0.43;;;;;;;29.32;28.09;101202.25;5093769;28;20043;-63
2021/10/01 12:23:55;;;;;;;2.40;0.65;;;;;;;29.13;28.06;101208.97;5094631;28;20031;-63
2021/10/01 12:26:35;;;;;;;1.98;0.40;;;;;;;28.87;28.62;101204.78;5094626;28;20027;-63
2021/10/01 12:29:08;;;;;;;3.72;1.08;;;;;;;28.72;28.91;101215.47;5076319;28;20020;-63
2021/10/01 12:31:38;;;;;;;5.70;0.65;;;;;;;28.65;29.45;101209.22;5075717;28;20024;-63
2021/10/01 12:34:06;;;;;;;0.98;0.40;;;;;;;28.72;28.83;101207.19;5094038;28;20024;-62
2021/10/01 12:36:32;;;;;;;3.28;0.85;;;;;;;28.81;29.33;101211.28;5094080;28;20028;-63
2021/10/01 12:38:59;;;;;;;2.67;0.65;;;;;;;28.90;28.58;101204.31;5094236;28;20093;-62
2021/10/01 12:41:26;;;;;;;3.97;0.70;;;;;;;28.97;28.29;101210.53;5093191;28;20023;-62
2021/10/01 12:43:53;;;;;;;6.20;0.90;;;;;;;29.01;28.51;101206.22;5093820;28;20028;-62
2021/10/01 12:46:43;;;;;;;4.78;0.55;;;;;;;28.97;28.42;101212.47;5093915;28;20027;-62
2021/10/01 12:49:30;;;;;;;2.10;0.35;;;;;;;28.74;29.12;101202.25;5094002;28;20030;-63
2021/10/01 12:52:02;;;;;;;1.23;0.57;;;;;;;28.52;29.51;101206.66;5093669;28;20442;-63
2021/10/01 12:54:33;;;;;;;1.63;0.70;;;;;;;28.34;28.90;101207.56;5094165;28;20089;-62
2021/10/01 12:57:23;;;;;;;5.53;0.60;;;;;;;28.21;29.20;101210.53;5092458;28;20456;-62
2021/10/01 13:00:07;;;;;;;1.67;0.57;;;;;;;28.15;29.55;101217.84;5068079;28;20031;-63
2021/10/01 13:02:41;;;;;;;3.33;0.50;;;;;;;28.21;29.67;101216.91;5093875;28;20020;-63
2021/10/01 13:05:06;;;;;;;8.60;0.85;;;;;;;28.27;29.41;101215.97;5093788;28;20020;-63